createdAt,value
2022-11-24T00:00:31.480Z,8.32
2022-11-24T00:02:58.320Z,5.20
2022-11-24T00:05:25.101Z,7.47
2022-11-24T00:07:51.872Z,8.00
2022-11-24T00:10:18.719Z,7.60
2022-11-24T00:12:45.392Z,7.65
2022-11-24T00:15:12.087Z,7.82
2022-11-24T00:17:38.747Z,6.63
2022-11-24T00:20:06.101Z,7.35
2022-11-24T00:24:59.391Z,6.90
2022-11-24T00:27:26.091Z,7.10
2022-11-24T00:29:52.920Z,6.70
2022-11-24T00:32:19.623Z,6.38
2022-11-24T00:34:47.265Z,7.88
2022-11-24T00:37:13.920Z,7.72
2022-11-24T00:39:40.600Z,8.65
2022-11-24T00:42:07.401Z,7.28
2022-11-24T00:44:34.307Z,8.55
2022-11-24T00:47:01.221Z,8.02
2022-11-24T00:49:27.939Z,8.10
2022-11-24T00:51:54.635Z,8.60
2022-11-24T00:54:21.472Z,7.97
2022-11-24T00:56:48.155Z,7.95
2022-11-24T00:59:14.978Z,8.50
2022-11-24T01:01:42.666Z,8.27
2022-11-24T01:04:09.505Z,9.15
2022-11-24T01:06:36.676Z,9.05
2022-11-24T01:09:04.239Z,8.57
2022-11-24T01:11:53.400Z,8.32
2022-11-24T01:14:24.187Z,8.23
2022-11-24T01:16:51.349Z,8.23
2022-11-24T01:19:18.712Z,7.93
2022-11-24T01:24:12.526Z,8.52
2022-11-24T01:26:39.858Z,7.88
2022-11-24T01:31:33.210Z,7.90
2022-11-24T01:33:59.875Z,7.05
2022-11-24T01:36:26.577Z,8.65
2022-11-24T01:38:53.267Z,8.63
2022-11-24T01:41:25.505Z,6.63
2022-11-24T01:43:53.607Z,8.02
2022-11-24T01:46:36.212Z,7.78
2022-11-24T01:49:08.940Z,7.72
2022-11-24T01:51:43.508Z,7.88
2022-11-24T01:54:19.917Z,8.40
2022-11-24T01:56:51.456Z,7.82
2022-11-24T01:59:20.975Z,8.02
2022-11-24T02:01:50.288Z,8.50
2022-11-24T02:04:23.803Z,7.50
2022-11-24T02:06:52.081Z,8.55
2022-11-24T02:09:45.534Z,7.97
2022-11-24T02:12:12.638Z,8.57
2022-11-24T02:14:41.844Z,6.97
2022-11-24T02:17:08.645Z,6.55
2022-11-24T02:19:41.377Z,4.63
2022-11-24T02:22:15.858Z,6.07
2022-11-24T02:24:54.648Z,7.43
2022-11-24T02:27:21.340Z,7.07
2022-11-24T02:29:49.072Z,7.25
2022-11-24T02:32:16.290Z,6.65
2022-11-24T02:34:42.936Z,6.55
2022-11-24T02:37:09.751Z,7.45
2022-11-24T02:39:36.421Z,7.28
2022-11-24T02:42:12.922Z,7.55
2022-11-24T02:44:45.237Z,6.80
2022-11-24T02:47:13.090Z,7.50
2022-11-24T02:49:40.552Z,6.80
2022-11-24T02:54:34.346Z,7.03
2022-11-24T02:57:01.419Z,7.50
2022-11-24T02:59:28.341Z,7.63
2022-11-24T03:01:55.067Z,7.47
2022-11-24T03:04:21.776Z,8.18
2022-11-24T03:06:48.885Z,5.72
2022-11-24T03:09:15.605Z,8.50
2022-11-24T03:11:42.363Z,6.50
2022-11-24T03:14:09.289Z,8.07
2022-11-24T03:16:35.954Z,8.68
2022-11-24T03:19:03.305Z,8.57
2022-11-24T03:23:56.719Z,8.32
2022-11-24T03:26:25.357Z,7.88
2022-11-24T03:28:55.413Z,8.30
2022-11-24T03:31:23.449Z,7.53
2022-11-24T03:33:50.208Z,9.30
2022-11-24T03:36:17.158Z,6.20
2022-11-24T03:38:44.480Z,9.05
2022-11-24T03:41:11.263Z,8.43
2022-11-24T03:43:43.240Z,7.32
2022-11-24T03:46:11.395Z,7.90
2022-11-24T03:48:38.267Z,7.93
2022-11-24T03:51:05.112Z,8.20
2022-11-24T03:53:33.505Z,9.05
2022-11-24T03:56:01.896Z,8.35
2022-11-24T03:58:29.253Z,9.05
2022-11-24T04:03:23.656Z,8.32
2022-11-24T04:08:17.460Z,7.28
2022-11-24T04:10:44.320Z,6.70
2022-11-24T04:13:14.226Z,7.10
2022-11-24T04:15:42.289Z,6.82
2022-11-24T04:18:10.300Z,6.75
2022-11-24T04:20:37.188Z,6.22
2022-11-24T04:23:03.991Z,4.85
2022-11-24T04:25:30.667Z,4.80
2022-11-24T04:27:57.547Z,6.07
2022-11-24T04:30:26.277Z,5.18
2022-11-24T04:32:53.677Z,5.80
2022-11-24T04:37:49.291Z,5.85
2022-11-24T04:40:16.370Z,5.88
2022-11-24T04:42:43.015Z,6.20
2022-11-24T04:45:11.340Z,6.07
2022-11-24T04:47:38.347Z,6.80
2022-11-24T04:50:07.615Z,6.03
2022-11-24T04:52:34.347Z,5.10
2022-11-24T04:55:01.428Z,5.60
2022-11-24T04:57:28.261Z,6.90
2022-11-24T04:59:55.397Z,9.25
2022-11-24T05:02:23.114Z,6.43
2022-11-24T05:04:50.007Z,5.85
2022-11-24T05:07:19.357Z,4.90
2022-11-24T05:10:05.803Z,5.65
2022-11-24T05:12:32.521Z,6.13
2022-11-24T05:15:03.954Z,4.43
2022-11-24T05:17:32.358Z,6.15
2022-11-24T05:19:59.515Z,5.50
2022-11-24T05:22:28.031Z,4.30
2022-11-24T05:24:54.717Z,5.60
2022-11-24T05:27:21.632Z,5.28
2022-11-24T05:29:48.320Z,5.72
2022-11-24T05:32:15.102Z,4.10
2022-11-24T05:34:41.776Z,5.15
2022-11-24T05:37:08.915Z,3.92
2022-11-24T05:39:36.599Z,4.47
2022-11-24T05:42:25.160Z,4.20
2022-11-24T05:44:52.374Z,4.15
2022-11-24T05:47:19.524Z,5.50
2022-11-24T05:49:46.395Z,5.45
2022-11-24T05:52:13.453Z,4.90
2022-11-24T05:54:40.202Z,5.70
2022-11-24T05:57:06.999Z,7.38
2022-11-24T05:59:33.837Z,5.38
2022-11-24T06:02:00.812Z,5.65
2022-11-24T06:04:27.752Z,4.93
2022-11-24T06:06:54.520Z,4.97
2022-11-24T06:09:21.275Z,3.83
2022-11-24T06:11:48.749Z,7.68
2022-11-24T06:14:15.661Z,7.00
2022-11-24T06:16:42.422Z,5.32
2022-11-24T06:19:10.884Z,4.75
2022-11-24T06:21:37.809Z,4.10
2022-11-24T06:24:05.288Z,5.88
2022-11-24T06:26:32.073Z,7.13
2022-11-24T06:28:58.944Z,7.25
2022-11-24T06:31:25.741Z,7.55
2022-11-24T06:33:53.171Z,5.63
2022-11-24T06:38:46.515Z,8.05
2022-11-24T06:41:15.515Z,7.45
2022-11-24T06:43:42.241Z,6.38
2022-11-24T06:46:09.024Z,3.90
2022-11-24T06:48:36.292Z,4.28
2022-11-24T06:51:05.442Z,3.88
2022-11-24T06:53:39.978Z,3.90
2022-11-24T06:56:16.365Z,8.60
2022-11-24T06:58:48.873Z,9.30
2022-11-24T07:01:17.709Z,10.23
2022-11-24T07:03:45.149Z,9.73
2022-11-24T07:08:38.664Z,10.27
2022-11-24T07:11:10.236Z,10.40
2022-11-24T07:13:37.046Z,9.73
2022-11-24T07:16:15.254Z,6.85
2022-11-24T07:18:43.891Z,11.35
2022-11-24T07:21:11.005Z,13.13
2022-11-24T07:23:38.296Z,12.13
2022-11-24T07:26:07.092Z,13.73
2022-11-24T07:28:34.717Z,12.60
2022-11-24T07:33:42.186Z,18.85
2022-11-24T07:36:09.456Z,13.68
2022-11-24T07:38:36.187Z,14.30
2022-11-24T07:41:05.567Z,10.50
2022-11-24T07:43:33.417Z,14.57
2022-11-24T07:46:00.605Z,11.70
2022-11-24T07:48:27.738Z,15.40
2022-11-24T07:50:56.255Z,14.57
2022-11-24T07:53:23.209Z,12.90
2022-11-24T07:55:54.645Z,11.02
2022-11-24T07:58:21.897Z,11.23
2022-11-24T08:00:48.865Z,10.07
2022-11-24T08:03:15.967Z,10.45
2022-11-24T08:06:07.704Z,12.18
2022-11-24T08:08:33.266Z,11.55
2022-11-24T08:11:04.939Z,10.68
2022-11-24T08:13:31.644Z,9.90
2022-11-24T08:15:58.306Z,8.80
2022-11-24T08:18:25.179Z,11.65
2022-11-24T08:20:52.645Z,12.93
2022-11-24T08:23:19.354Z,11.68
2022-11-24T08:25:46.048Z,10.98
2022-11-24T08:28:12.701Z,11.50
2022-11-24T08:30:39.395Z,11.23
2022-11-24T08:33:06.062Z,10.93
2022-11-24T08:35:36.886Z,11.20
2022-11-24T08:38:05.006Z,11.35
2022-11-24T08:40:32.490Z,12.80
2022-11-24T08:45:30.521Z,10.85
2022-11-24T08:47:58.058Z,10.20
2022-11-24T08:50:25.497Z,9.50
2022-11-24T08:55:20.493Z,8.65
2022-11-24T08:57:47.219Z,8.50
2022-11-24T09:00:14.408Z,8.90
2022-11-24T09:02:42.823Z,8.77
2022-11-24T09:05:28.759Z,10.05
2022-11-24T09:07:56.240Z,9.23
2022-11-24T09:10:22.976Z,9.30
2022-11-24T09:12:51.176Z,9.02
2022-11-24T09:15:20.116Z,8.82
2022-11-24T09:17:46.759Z,8.55
2022-11-24T09:20:13.450Z,6.72
2022-11-24T09:22:41.642Z,8.48
2022-11-24T09:25:09.032Z,7.70
2022-11-24T09:30:03.777Z,7.60
2022-11-24T09:32:30.776Z,7.38
2022-11-24T09:34:57.595Z,7.63
2022-11-24T09:37:28.129Z,8.00
2022-11-24T09:39:56.342Z,9.13
2022-11-24T09:43:02.592Z,8.80
2022-11-24T09:46:09.386Z,8.82
2022-11-24T09:48:46.302Z,12.18
2022-11-24T09:51:14.978Z,8.60
2022-11-24T09:53:51.828Z,9.02
2022-11-24T09:56:22.427Z,8.60
2022-11-24T09:59:13.274Z,8.80
2022-11-24T10:01:42.655Z,10.00
2022-11-24T10:04:22.597Z,9.00
2022-11-24T10:07:08.655Z,10.68
2022-11-24T10:10:09.786Z,10.60
2022-11-24T10:13:01.408Z,10.27
2022-11-24T10:16:07.772Z,9.98
2022-11-24T10:18:37.574Z,9.98
2022-11-24T10:21:17.928Z,9.18
2022-11-24T10:24:08.901Z,10.68
2022-11-24T10:26:36.722Z,10.35
2022-11-24T10:29:21.348Z,10.07
2022-11-24T10:31:50.746Z,9.20
2022-11-24T10:34:29.918Z,9.02
2022-11-24T10:37:11.830Z,9.35
2022-11-24T10:39:59.907Z,9.40
2022-11-24T10:45:12.712Z,8.75
2022-11-24T10:47:40.554Z,9.63
2022-11-24T10:50:27.005Z,10.02
2022-11-24T10:53:07.120Z,8.65
2022-11-24T10:55:58.599Z,8.88
2022-11-24T10:58:27.005Z,10.10
2022-11-24T11:00:55.576Z,9.88
2022-11-24T11:03:25.210Z,8.63
2022-11-24T11:06:11.371Z,9.15
2022-11-24T11:08:38.534Z,9.45
2022-11-24T11:11:22.193Z,10.20
2022-11-24T11:14:01.509Z,8.38
2022-11-24T11:16:40.986Z,9.15
2022-11-24T11:19:54.104Z,7.90
2022-11-24T11:22:31.605Z,7.80
2022-11-24T11:25:43.560Z,8.02
2022-11-24T11:28:27.727Z,8.48
2022-11-24T11:31:20.991Z,7.63
2022-11-24T11:34:07.320Z,7.85
2022-11-24T11:36:51.236Z,7.38
2022-11-24T11:39:26.532Z,7.43
2022-11-24T11:42:38.028Z,8.18
2022-11-24T11:45:18.367Z,8.27
2022-11-24T11:48:05.444Z,7.88
2022-11-24T11:54:26.783Z,9.55
2022-11-24T11:57:07.950Z,8.60
2022-11-24T11:59:34.592Z,8.68
2022-11-24T12:02:38.165Z,8.13
2022-11-24T12:05:42.935Z,9.82
2022-11-24T12:08:55.904Z,11.50
2022-11-24T12:11:35.152Z,9.30
2022-11-24T12:14:01.767Z,10.60
2022-11-24T12:16:45.398Z,11.23
2022-11-24T12:19:29.271Z,10.80
2022-11-24T12:22:21.714Z,11.20
2022-11-24T12:25:02.478Z,11.15
2022-11-24T12:28:00.926Z,12.18
2022-11-24T12:30:37.877Z,10.65
2022-11-24T12:33:29.231Z,9.77
2022-11-24T12:36:23.852Z,10.27
2022-11-24T12:39:06.499Z,9.82
2022-11-24T12:42:09.697Z,10.68
2022-11-24T12:45:13.189Z,11.50
2022-11-24T12:48:03.621Z,11.27
2022-11-24T12:50:33.032Z,11.48
2022-11-24T12:53:05.636Z,12.52
2022-11-24T12:55:33.984Z,11.93
2022-11-24T12:58:13.537Z,13.98
2022-11-24T13:00:52.805Z,12.52
2022-11-24T13:03:22.236Z,13.45
2022-11-24T13:06:18.168Z,11.18
2022-11-24T13:08:45.453Z,12.10
2022-11-24T13:13:59.823Z,11.80
2022-11-24T13:16:36.089Z,8.68
2022-11-24T13:19:14.691Z,10.27
2022-11-24T13:21:45.428Z,7.88
2022-11-24T13:24:19.331Z,8.57
2022-11-24T13:26:49.829Z,10.40
2022-11-24T13:29:33.295Z,9.30
2022-11-24T13:32:02.796Z,10.65
2022-11-24T13:34:45.583Z,7.68
2022-11-24T13:37:34.948Z,8.55
2022-11-24T13:40:22.444Z,9.43
2022-11-24T13:42:54.910Z,9.63
2022-11-24T13:45:45.143Z,9.60
2022-11-24T13:48:21.647Z,9.75
2022-11-24T13:50:53.113Z,9.53
2022-11-24T13:53:38.337Z,9.40
2022-11-24T13:56:25.204Z,9.35
2022-11-24T13:59:00.459Z,8.63
2022-11-24T14:01:36.596Z,8.85
2022-11-24T14:04:31.403Z,8.73
2022-11-24T14:07:07.299Z,8.90
2022-11-24T14:09:47.110Z,13.52
2022-11-24T14:12:24.552Z,12.60
2022-11-24T14:14:55.590Z,9.10
2022-11-24T14:17:31.349Z,9.32
2022-11-24T14:19:58.559Z,7.00
2022-11-24T14:22:36.596Z,8.13
2022-11-24T14:27:37.503Z,7.95
2022-11-24T14:30:25.068Z,8.52
2022-11-24T14:32:55.860Z,7.57
2022-11-24T14:35:36.132Z,8.82
2022-11-24T14:38:05.214Z,9.82
2022-11-24T14:40:50.387Z,9.70
2022-11-24T14:43:35.242Z,11.50
2022-11-24T14:46:12.187Z,7.78
2022-11-24T14:48:47.445Z,10.35
2022-11-24T14:51:24.639Z,10.10
2022-11-24T14:53:53.545Z,11.40
2022-11-24T14:56:40.424Z,12.75
2022-11-24T14:59:25.890Z,11.70
2022-11-24T15:01:52.792Z,9.88
2022-11-24T15:05:00.842Z,8.38
2022-11-24T15:07:27.261Z,8.98
2022-11-24T15:09:57.883Z,10.00
2022-11-24T15:12:34.734Z,8.40
2022-11-24T15:15:05.644Z,9.23
2022-11-24T15:17:32.831Z,9.02
2022-11-24T15:20:10.499Z,9.52
2022-11-24T15:22:42.192Z,8.85
2022-11-24T15:25:34.955Z,10.13
2022-11-24T15:28:01.812Z,9.50
2022-11-24T15:30:29.294Z,11.05
2022-11-24T15:32:58.108Z,11.80
2022-11-24T15:35:28.469Z,15.68
2022-11-24T15:37:55.241Z,13.55
2022-11-24T15:40:22.074Z,12.00
2022-11-24T15:42:54.033Z,17.17
2022-11-24T15:45:23.170Z,15.73
2022-11-24T15:47:50.163Z,12.50
2022-11-24T15:50:17.029Z,13.82
2022-11-24T15:52:45.051Z,10.68
2022-11-24T15:55:22.292Z,11.75
2022-11-24T15:57:49.714Z,14.40
2022-11-24T16:00:19.551Z,14.93
2022-11-24T16:02:46.424Z,16.58
2022-11-24T16:05:13.957Z,18.73
2022-11-24T16:07:40.978Z,19.45
2022-11-24T16:10:24.618Z,18.08
2022-11-24T16:12:51.336Z,15.93
2022-11-24T16:15:18.024Z,15.10
2022-11-24T16:17:44.724Z,13.98
2022-11-24T16:20:11.560Z,14.40
2022-11-24T16:22:38.293Z,13.70
2022-11-24T16:25:05.709Z,12.70
2022-11-24T16:29:59.003Z,11.65
2022-11-24T16:32:25.705Z,10.27
2022-11-24T16:34:52.392Z,10.80
2022-11-24T16:37:20.945Z,10.93
2022-11-24T16:39:50.157Z,12.20
2022-11-24T16:42:17.438Z,11.77
2022-11-24T16:44:44.104Z,12.93
2022-11-24T16:47:12.796Z,14.85
2022-11-24T16:49:39.649Z,19.38
2022-11-24T16:52:06.680Z,23.23
2022-11-24T16:54:33.667Z,22.83
2022-11-24T16:57:00.437Z,12.68
2022-11-24T16:59:27.079Z,8.70
2022-11-24T17:01:54.073Z,15.98
2022-11-24T17:04:20.903Z,17.33
2022-11-24T17:06:47.556Z,18.33
2022-11-24T17:09:14.224Z,20.33
2022-11-24T17:11:41.219Z,20.98
2022-11-24T17:14:09.411Z,22.67
2022-11-24T17:16:37.587Z,25.33
2022-11-24T17:19:05.504Z,24.30
2022-11-24T17:21:32.897Z,26.05
2022-11-24T17:26:28.219Z,20.90
2022-11-24T17:28:56.032Z,29.00
2022-11-24T17:31:41.030Z,30.60
2022-11-24T17:34:09.488Z,20.90
2022-11-24T17:36:36.243Z,23.85
2022-11-24T17:39:04.973Z,19.55
2022-11-24T17:41:32.681Z,19.77
2022-11-24T17:43:59.595Z,17.65
2022-11-24T17:46:27.860Z,24.50
2022-11-24T17:48:54.931Z,17.52
2022-11-24T17:51:23.455Z,11.13
2022-11-24T17:53:52.156Z,10.32
2022-11-24T17:56:24.741Z,11.77
2022-11-24T17:58:59.464Z,13.13
2022-11-24T18:01:28.447Z,11.80
2022-11-24T18:03:57.888Z,10.57
2022-11-24T18:06:28.639Z,10.25
2022-11-24T18:08:57.332Z,17.63
2022-11-24T18:11:30.889Z,17.15
2022-11-24T18:14:01.602Z,13.80
2022-11-24T18:16:30.972Z,16.40
2022-11-24T18:19:14.637Z,14.30
2022-11-24T18:21:43.521Z,10.98
2022-11-24T18:24:11.780Z,7.25
2022-11-24T18:26:39.916Z,10.88
2022-11-24T18:29:07.159Z,8.63
2022-11-24T18:31:35.630Z,14.80
2022-11-24T18:34:04.199Z,15.10
2022-11-24T18:36:31.761Z,12.60
2022-11-24T18:39:02.826Z,8.57
2022-11-24T18:41:29.511Z,5.07
2022-11-24T18:43:56.229Z,9.30
2022-11-24T18:46:22.986Z,5.65
2022-11-24T18:48:51.925Z,8.20
2022-11-24T18:51:18.858Z,6.30
2022-11-24T18:53:46.588Z,6.97
2022-11-24T18:56:15.915Z,6.97
2022-11-24T18:58:43.245Z,9.88
2022-11-24T19:01:16.149Z,6.18
2022-11-24T19:03:48.620Z,7.20
2022-11-24T19:06:36.181Z,5.55
2022-11-24T19:09:06.594Z,8.60
2022-11-24T19:11:37.030Z,5.68
2022-11-24T19:14:06.131Z,6.32
2022-11-24T19:16:33.349Z,7.00
2022-11-24T19:19:01.616Z,8.50
2022-11-24T19:21:32.810Z,11.93
2022-11-24T19:24:04.507Z,10.10
2022-11-24T19:26:32.471Z,7.38
2022-11-24T19:28:59.150Z,7.65
2022-11-24T19:31:25.889Z,7.65
2022-11-24T19:33:54.527Z,4.63
2022-11-24T19:36:22.112Z,10.70
2022-11-24T19:38:54.277Z,6.38
2022-11-24T19:41:23.822Z,5.63
2022-11-24T19:43:53.308Z,5.43
2022-11-24T19:46:20.628Z,5.75
2022-11-24T19:51:22.579Z,8.75
2022-11-24T19:53:49.309Z,8.10
2022-11-24T19:56:24.117Z,11.73
2022-11-24T19:58:52.106Z,13.65
2022-11-24T20:01:26.602Z,13.40
2022-11-24T20:03:58.892Z,12.02
2022-11-24T20:06:28.026Z,11.60
2022-11-24T20:08:55.128Z,13.07
2022-11-24T20:11:22.386Z,13.68
2022-11-24T20:13:50.059Z,15.00
2022-11-24T20:16:19.744Z,16.23
2022-11-24T20:18:47.622Z,14.95
2022-11-24T20:21:18.088Z,16.00
2022-11-24T20:23:46.735Z,15.68
2022-11-24T20:26:16.378Z,16.73
2022-11-24T20:28:43.445Z,13.45
2022-11-24T20:31:13.523Z,12.30
2022-11-24T20:33:41.140Z,7.07
2022-11-24T20:36:13.298Z,5.50
2022-11-24T20:38:41.259Z,4.25
2022-11-24T20:41:16.732Z,3.80
2022-11-24T20:43:44.851Z,4.20
2022-11-24T20:46:23.947Z,5.85
2022-11-24T20:48:51.313Z,6.45
2022-11-24T20:53:49.744Z,7.20
2022-11-24T20:56:19.370Z,7.32
2022-11-24T20:58:46.649Z,6.82
2022-11-24T21:01:35.579Z,11.15
2022-11-24T21:04:03.136Z,9.07
2022-11-24T21:06:30.640Z,10.15
2022-11-24T21:09:03.501Z,25.25
2022-11-24T21:11:31.360Z,17.48
2022-11-24T21:13:58.517Z,4.93
2022-11-24T21:16:31.198Z,3.90
2022-11-24T21:19:01.095Z,3.20
2022-11-24T21:21:33.928Z,3.60
2022-11-24T21:24:05.632Z,3.65
2022-11-24T21:26:36.752Z,3.47
2022-11-24T21:29:04.431Z,4.60
2022-11-24T21:31:31.147Z,3.97
2022-11-24T21:33:57.835Z,4.55
2022-11-24T21:36:26.412Z,6.18
2022-11-24T21:38:55.437Z,6.50
2022-11-24T21:41:23.558Z,6.40
2022-11-24T21:43:51.566Z,6.10
2022-11-24T21:46:18.530Z,7.15
2022-11-24T21:48:45.461Z,7.45
2022-11-24T21:51:16.140Z,8.48
2022-11-24T21:53:43.662Z,7.63
2022-11-24T21:56:16.919Z,7.32
2022-11-24T21:58:45.895Z,7.13
2022-11-24T22:01:14.048Z,5.97
2022-11-24T22:03:40.740Z,6.28
2022-11-24T22:06:07.827Z,6.22
2022-11-24T22:08:34.952Z,6.35
2022-11-24T22:11:04.179Z,5.43
2022-11-24T22:13:31.195Z,5.45
2022-11-24T22:16:13.125Z,4.72
2022-11-24T22:18:41.444Z,5.80
2022-11-24T22:21:14.349Z,5.90
2022-11-24T22:23:41.761Z,5.32
2022-11-24T22:28:36.679Z,3.92
2022-11-24T22:31:08.065Z,4.43
2022-11-24T22:33:35.040Z,4.07
2022-11-24T22:36:02.401Z,4.07
2022-11-24T22:41:08.430Z,4.50
2022-11-24T22:43:36.782Z,5.40
2022-11-24T22:46:18.086Z,7.03
2022-11-24T22:48:46.511Z,4.50
2022-11-24T22:51:15.657Z,3.70
2022-11-24T22:53:50.837Z,3.15
2022-11-24T22:56:18.167Z,3.78
2022-11-24T22:58:45.185Z,3.95
2022-11-24T23:01:22.982Z,3.60
2022-11-24T23:03:50.799Z,3.78
2022-11-24T23:06:32.276Z,4.43
2022-11-24T23:09:00.771Z,4.85
2022-11-24T23:11:37.755Z,3.45
2022-11-24T23:14:07.285Z,4.13
2022-11-24T23:16:34.172Z,5.30
2022-11-24T23:19:00.932Z,4.30
2022-11-24T23:21:30.071Z,2.65
2022-11-24T23:23:58.944Z,3.80
2022-11-24T23:26:34.932Z,4.40
2022-11-24T23:29:02.032Z,4.57
2022-11-24T23:31:29.212Z,4.95
2022-11-24T23:36:26.892Z,5.10
2022-11-24T23:38:54.358Z,5.32
2022-11-24T23:43:52.572Z,6.50
2022-11-24T23:48:51.235Z,8.25
2022-11-24T23:51:20.645Z,9.23
2022-11-24T23:53:47.399Z,8.85
2022-11-24T23:56:19.423Z,9.90
2022-11-24T23:58:46.579Z,10.38
